Time;durP1;ratioP1;P1;durP2;ratioP2;P2;SDS_P1;SDS_P2;PMS_P1;PMS_P2;Temp;Humidity;BMP_temperature;BMP_pressure;BME280_temperature;BME280_humidity;BME280_pressure;Samples;Min_cycle;Max_cycle;Signal;HPM_P1;HPM_P2
2022/03/29 00:02:01;;;;;;;20.25;17.55;;;7.50;99.90;;;;;;5039652;28;20059;-55
2022/03/29 00:04:28;;;;;;;19.70;17.20;;;7.40;99.90;;;;;;5026650;28;20075;-57
2022/03/29 00:06:54;;;;;;;19.77;17.48;;;7.50;99.90;;;;;;5029896;28;20621;-57
2022/03/29 00:09:21;;;;;;;20.75;18.23;;;7.50;99.90;;;;;;5041397;28;20076;-57
2022/03/29 00:11:48;;;;;;;21.33;17.58;;;7.50;99.90;;;;;;5029497;28;21725;-58
2022/03/29 00:14:14;;;;;;;22.58;18.33;;;7.50;99.90;;;;;;5041383;28;20566;-56
2022/03/29 00:16:41;;;;;;;23.33;19.38;;;7.40;99.90;;;;;;5046610;28;20046;-56
2022/03/29 00:19:07;;;;;;;22.45;18.98;;;7.40;99.90;;;;;;5046688;28;20048;-56
2022/03/29 00:21:34;;;;;;;23.90;19.17;;;7.50;99.90;;;;;;5035290;28;20040;-57
2022/03/29 00:24:01;;;;;;;22.70;19.88;;;7.40;99.90;;;;;;5009492;28;20041;-57
2022/03/29 00:26:27;;;;;;;22.73;19.52;;;7.40;99.90;;;;;;5056740;28;20455;-56
2022/03/29 00:28:54;;;;;;;26.60;21.60;;;7.30;99.90;;;;;;5035162;28;20523;-56
2022/03/29 00:31:20;;;;;;;25.50;21.17;;;7.30;99.90;;;;;;5038111;28;20624;-56
2022/03/29 00:33:47;;;;;;;24.02;21.30;;;7.30;99.90;;;;;;5036168;28;20041;-56
2022/03/29 00:36:14;;;;;;;23.73;21.25;;;7.30;99.90;;;;;;5037786;28;20664;-56
2022/03/29 00:38:41;;;;;;;25.45;22.70;;;7.30;99.90;;;;;;5018292;28;20132;-56
2022/03/29 00:41:07;;;;;;;27.10;23.38;;;7.30;99.90;;;;;;5029254;28;20064;-58
2022/03/29 00:43:33;;;;;;;26.90;22.48;;;7.30;99.90;;;;;;5024790;28;20132;-58
2022/03/29 00:45:59;;;;;;;24.90;22.17;;;7.30;99.90;;;;;;5051424;28;20049;-57
2022/03/29 00:48:26;;;;;;;26.08;23.02;;;7.30;99.90;;;;;;5042241;28;20125;-57
2022/03/29 00:50:53;;;;;;;26.10;23.33;;;7.20;99.90;;;;;;5035987;28;20037;-57
2022/03/29 00:53:22;;;;;;;27.63;23.17;;;7.20;99.90;;;;;;5052152;28;20047;-56
2022/03/29 00:55:49;;;;;;;27.73;22.40;;;7.20;99.90;;;;;;5027894;28;20079;-57
2022/03/29 00:58:16;;;;;;;26.85;23.35;;;7.30;99.90;;;;;;5047701;28;20420;-57
2022/03/29 01:00:42;;;;;;;26.58;23.70;;;7.30;99.90;;;;;;5029224;28;20099;-57
2022/03/29 01:03:09;;;;;;;27.05;23.55;;;7.20;99.90;;;;;;5015251;28;20400;-57
2022/03/29 01:05:35;;;;;;;27.38;24.23;;;7.20;99.90;;;;;;5045333;28;20076;-57
2022/03/29 01:08:01;;;;;;;29.02;24.20;;;7.20;99.90;;;;;;5026530;28;20049;-57
2022/03/29 01:10:28;;;;;;;26.95;23.40;;;7.30;99.90;;;;;;5032378;28;20126;-57
2022/03/29 01:12:55;;;;;;;26.63;23.70;;;7.30;99.90;;;;;;5044287;28;20044;-57
2022/03/29 01:15:26;;;;;;;28.10;24.17;;;7.30;99.90;;;;;;5031592;28;20045;-57
2022/03/29 01:17:53;;;;;;;28.45;23.33;;;7.30;99.90;;;;;;5028862;28;20057;-56
2022/03/29 01:20:21;;;;;;;26.83;22.48;;;7.30;99.90;;;;;;5014498;28;20488;-57
2022/03/29 01:22:51;;;;;;;28.25;23.70;;;7.20;99.90;;;;;;5029026;28;20100;-57
2022/03/29 01:25:22;;;;;;;28.08;23.33;;;7.20;99.90;;;;;;5030962;28;20562;-57
2022/03/29 01:27:50;;;;;;;26.35;23.02;;;7.30;99.90;;;;;;5043717;28;20571;-57
2022/03/29 01:30:17;;;;;;;27.55;23.77;;;7.20;99.90;;;;;;5031162;28;20406;-57
2022/03/29 01:32:45;;;;;;;27.30;23.67;;;7.20;99.90;;;;;;5025577;28;20064;-57
2022/03/29 01:35:12;;;;;;;26.45;22.58;;;7.20;99.90;;;;;;5046027;28;20049;-57
2022/03/29 01:37:39;;;;;;;26.42;22.42;;;7.20;99.90;;;;;;5031188;28;20132;-57
2022/03/29 01:40:07;;;;;;;25.15;22.05;;;7.30;99.90;;;;;;5028358;28;20508;-57
2022/03/29 01:42:33;;;;;;;25.63;21.67;;;7.30;99.90;;;;;;5029836;28;20607;-56
2022/03/29 01:45:00;;;;;;;26.50;23.08;;;7.20;99.90;;;;;;5031417;28;20122;-56
2022/03/29 01:47:26;;;;;;;26.05;21.85;;;7.20;99.90;;;;;;5044691;28;20060;-57
2022/03/29 01:49:52;;;;;;;24.63;21.52;;;7.20;99.90;;;;;;5042643;28;20092;-56
2022/03/29 01:52:19;;;;;;;27.05;22.23;;;7.20;99.90;;;;;;5033059;28;20241;-56
2022/03/29 01:54:46;;;;;;;30.00;22.13;;;7.20;99.90;;;;;;5026403;28;20042;-57
2022/03/29 01:57:12;;;;;;;26.75;23.63;;;7.20;99.90;;;;;;5031517;28;20141;-56
2022/03/29 02:02:27;;;;;;;27.40;23.30;;;7.20;99.90;;;;;;5030919;28;20459;-56
2022/03/29 02:04:53;;;;;;;28.95;22.50;;;7.20;99.90;;;;;;5030598;28;20575;-57
2022/03/29 02:07:21;;;;;;;28.75;23.85;;;7.20;99.90;;;;;;5045258;28;20155;-56
2022/03/29 02:09:48;;;;;;;30.27;23.23;;;7.20;99.90;;;;;;5033112;28;20037;-57
2022/03/29 02:12:14;;;;;;;29.50;24.42;;;7.20;99.90;;;;;;5031766;28;20050;-56
2022/03/29 02:14:40;;;;;;;29.08;24.48;;;7.10;99.90;;;;;;5031431;28;20051;-56
2022/03/29 02:17:06;;;;;;;34.55;24.92;;;7.00;99.90;;;;;;5033104;28;20053;-56
2022/03/29 02:19:32;;;;;;;34.03;25.75;;;7.10;99.90;;;;;;5027076;28;20098;-57
2022/03/29 02:21:58;;;;;;;30.17;24.10;;;7.10;99.90;;;;;;5028915;28;20282;-56
2022/03/29 02:24:24;;;;;;;27.92;24.52;;;7.10;99.90;;;;;;5032421;28;20333;-56
2022/03/29 02:26:50;;;;;;;31.60;25.02;;;7.10;99.90;;;;;;5030977;28;20041;-56
2022/03/29 02:29:16;;;;;;;27.70;24.10;;;7.10;99.90;;;;;;5042907;28;20190;-56
2022/03/29 02:31:42;;;;;;;30.13;24.23;;;7.10;99.90;;;;;;5046563;28;20049;-56
2022/03/29 02:34:08;;;;;;;31.77;25.60;;;7.10;99.90;;;;;;5032143;28;20559;-56
2022/03/29 02:36:34;;;;;;;29.65;24.80;;;7.10;99.90;;;;;;5025134;28;20041;-56
2022/03/29 02:39:00;;;;;;;31.23;24.25;;;7.00;99.90;;;;;;5029680;28;20060;-56
2022/03/29 02:41:26;;;;;;;31.38;24.10;;;7.10;99.90;;;;;;5027473;28;20757;-56
2022/03/29 02:43:52;;;;;;;31.40;24.27;;;7.10;99.90;;;;;;5032038;28;20505;-56
2022/03/29 02:46:19;;;;;;;28.92;24.50;;;7.10;99.90;;;;;;5049501;28;20053;-56
2022/03/29 02:48:45;;;;;;;31.02;23.85;;;7.10;99.90;;;;;;5033931;28;20048;-56
2022/03/29 02:51:11;;;;;;;33.20;25.00;;;7.10;99.90;;;;;;5044476;28;20131;-56
2022/03/29 02:53:37;;;;;;;31.42;24.73;;;7.10;99.90;;;;;;5032196;28;20047;-56
2022/03/29 02:56:03;;;;;;;30.55;25.25;;;7.10;99.90;;;;;;5048718;28;20045;-56
2022/03/29 02:58:29;;;;;;;32.67;24.70;;;7.10;99.90;;;;;;5015490;28;20041;-57
2022/03/29 03:00:55;;;;;;;31.33;25.98;;;7.10;99.90;;;;;;5029616;28;20074;-57
2022/03/29 03:03:22;;;;;;;34.50;25.95;;;7.10;99.90;;;;;;5034289;28;20506;-57
2022/03/29 03:05:48;;;;;;;32.50;25.33;;;7.10;99.90;;;;;;5030204;28;20049;-57
2022/03/29 03:08:14;;;;;;;32.50;25.52;;;7.10;99.90;;;;;;5038264;28;20055;-57
2022/03/29 03:10:40;;;;;;;41.72;25.52;;;7.00;99.90;;;;;;5050522;28;20094;-57
2022/03/29 03:13:06;;;;;;;31.10;25.65;;;7.10;99.90;;;;;;5031668;28;20359;-57
2022/03/29 03:15:32;;;;;;;29.75;24.75;;;7.10;99.90;;;;;;5030907;28;20399;-57
2022/03/29 03:17:58;;;;;;;31.48;24.70;;;7.10;99.90;;;;;;5036300;28;20072;-58
2022/03/29 03:20:26;;;;;;;32.08;25.65;;;7.10;99.90;;;;;;5034150;28;20044;-58
2022/03/29 03:22:52;;;;;;;32.88;24.30;;;7.10;99.90;;;;;;5031899;28;20261;-58
2022/03/29 03:25:19;;;;;;;31.20;25.58;;;7.10;99.90;;;;;;5031924;28;20046;-58
2022/03/29 03:27:45;;;;;;;32.13;25.40;;;7.10;99.90;;;;;;5036638;28;20500;-57
2022/03/29 03:30:16;;;;;;;32.55;25.92;;;7.20;99.90;;;;;;5041806;28;20575;-58
2022/03/29 03:32:42;;;;;;;35.47;25.38;;;7.20;99.90;;;;;;5036605;28;20587;-57
2022/03/29 03:35:09;;;;;;;33.95;25.40;;;7.20;99.90;;;;;;5044608;28;20456;-57
2022/03/29 03:37:35;;;;;;;30.75;24.55;;;7.20;99.90;;;;;;5043750;28;20557;-57
2022/03/29 03:40:08;;;;;;;32.33;24.58;;;7.10;99.90;;;;;;5060131;28;20127;-57
2022/03/29 03:42:35;;;;;;;32.90;25.70;;;7.10;99.90;;;;;;5042073;28;20041;-57
2022/03/29 03:45:03;;;;;;;32.30;25.90;;;7.10;99.90;;;;;;5043759;28;20521;-57
2022/03/29 03:47:30;;;;;;;30.30;25.33;;;7.10;99.90;;;;;;5021931;28;20627;-57
2022/03/29 03:49:56;;;;;;;30.17;25.45;;;7.10;99.90;;;;;;5027412;28;20038;-58
2022/03/29 03:52:23;;;;;;;31.60;26.40;;;7.00;99.90;;;;;;5030342;28;20044;-57
2022/03/29 03:54:49;;;;;;;29.25;23.85;;;7.00;99.90;;;;;;5050711;28;20509;-57
2022/03/29 03:57:15;;;;;;;34.80;26.55;;;7.00;99.90;;;;;;5029964;28;20503;-57
2022/03/29 03:59:41;;;;;;;28.83;24.85;;;7.00;99.90;;;;;;5038530;28;20488;-57
2022/03/29 04:02:07;;;;;;;30.88;25.45;;;6.90;99.90;;;;;;5028081;28;20041;-57
2022/03/29 04:04:33;;;;;;;34.42;26.55;;;6.90;99.90;;;;;;5031759;28;20036;-57
2022/03/29 04:07:00;;;;;;;32.50;26.15;;;6.90;99.90;;;;;;5048232;28;20118;-56
2022/03/29 04:09:27;;;;;;;35.00;26.70;;;6.90;99.90;;;;;;5036296;28;20114;-57
2022/03/29 04:11:53;;;;;;;34.20;26.40;;;6.90;99.90;;;;;;5046212;28;20048;-57
2022/03/29 04:14:19;;;;;;;35.10;26.17;;;6.90;99.90;;;;;;5032628;28;20548;-57
2022/03/29 04:16:45;;;;;;;35.53;25.23;;;6.90;99.90;;;;;;5035295;28;20061;-58
2022/03/29 04:19:11;;;;;;;38.55;26.27;;;6.90;99.90;;;;;;5051489;28;20052;-57
2022/03/29 04:21:37;;;;;;;30.98;23.33;;;7.00;99.90;;;;;;5048453;28;20049;-57
2022/03/29 04:24:04;;;;;;;35.67;26.73;;;7.00;99.90;;;;;;5042250;28;20073;-58
2022/03/29 04:26:30;;;;;;;35.60;27.15;;;7.00;99.90;;;;;;5040045;28;20072;-56
2022/03/29 04:28:57;;;;;;;29.50;25.17;;;7.00;99.90;;;;;;5036462;28;20049;-56
2022/03/29 04:31:23;;;;;;;35.90;27.50;;;7.00;99.90;;;;;;5027162;28;20049;-57
2022/03/29 04:33:49;;;;;;;36.08;26.65;;;7.00;99.90;;;;;;5049499;28;20134;-56
2022/03/29 04:36:15;;;;;;;39.10;27.60;;;7.00;99.90;;;;;;5042326;28;20050;-57
2022/03/29 04:38:41;;;;;;;31.65;26.42;;;7.10;99.90;;;;;;5032574;28;20076;-56
2022/03/29 04:41:07;;;;;;;33.53;25.52;;;7.10;99.90;;;;;;5046243;28;20516;-57
2022/03/29 04:43:33;;;;;;;31.00;25.98;;;7.10;99.90;;;;;;5041322;28;20061;-57
2022/03/29 04:46:01;;;;;;;34.75;28.27;;;7.10;99.90;;;;;;5058564;28;20049;-57
2022/03/29 04:48:28;;;;;;;38.22;26.98;;;7.20;99.90;;;;;;5034474;28;20060;-57
2022/03/29 04:50:54;;;;;;;35.55;27.27;;;7.10;99.90;;;;;;5045676;28;20044;-56
2022/03/29 04:53:20;;;;;;;37.60;26.52;;;7.10;99.90;;;;;;5028846;28;20048;-56
2022/03/29 04:55:46;;;;;;;31.10;25.90;;;7.10;99.90;;;;;;5037558;28;20060;-56
2022/03/29 04:58:12;;;;;;;34.17;26.92;;;7.10;99.90;;;;;;5035086;28;20413;-58
2022/03/29 05:00:38;;;;;;;32.97;25.92;;;7.20;99.90;;;;;;5039958;28;20150;-58
2022/03/29 05:03:05;;;;;;;32.78;25.42;;;7.20;99.90;;;;;;5043712;28;20052;-57
2022/03/29 05:05:31;;;;;;;32.05;27.05;;;7.20;99.90;;;;;;5046303;28;20416;-57
2022/03/29 05:07:57;;;;;;;37.38;27.35;;;7.20;99.90;;;;;;5031809;28;20084;-57
2022/03/29 05:10:23;;;;;;;34.00;25.30;;;7.20;99.90;;;;;;5041294;28;20049;-58
2022/03/29 05:12:51;;;;;;;34.33;26.50;;;7.20;99.90;;;;;;5037301;28;20052;-57
2022/03/29 05:15:18;;;;;;;33.30;25.95;;;7.20;99.90;;;;;;5040512;28;20603;-57
2022/03/29 05:17:45;;;;;;;31.88;26.30;;;7.20;99.90;;;;;;5059844;28;20068;-57
2022/03/29 05:20:13;;;;;;;39.75;26.60;;;7.10;99.90;;;;;;5055111;28;20115;-57
2022/03/29 05:22:42;;;;;;;33.08;27.73;;;7.10;99.90;;;;;;5045864;28;20051;-57
2022/03/29 05:25:09;;;;;;;34.55;27.95;;;7.20;99.90;;;;;;5041282;28;20523;-57
2022/03/29 05:27:36;;;;;;;33.28;27.48;;;7.20;99.90;;;;;;5041271;28;20049;-57
2022/03/29 05:30:02;;;;;;;32.22;27.70;;;7.20;99.90;;;;;;5042169;28;20531;-57
2022/03/29 05:32:28;;;;;;;37.20;29.20;;;7.20;99.90;;;;;;5036834;28;20123;-57
2022/03/29 05:34:54;;;;;;;37.80;27.27;;;7.20;99.90;;;;;;5036025;28;20037;-57
2022/03/29 05:37:20;;;;;;;43.40;28.27;;;7.20;99.90;;;;;;5043494;28;20066;-57
2022/03/29 05:39:47;;;;;;;37.88;27.83;;;7.20;99.90;;;;;;5027192;28;20041;-57
2022/03/29 05:42:13;;;;;;;38.65;27.45;;;7.30;99.90;;;;;;5038818;28;20053;-57
2022/03/29 05:44:39;;;;;;;37.95;28.10;;;7.20;99.90;;;;;;5038997;28;20496;-57
2022/03/29 05:49:52;;;;;;;34.70;27.88;;;7.30;99.90;;;;;;5042548;28;20145;-57
2022/03/29 05:52:21;;;;;;;36.50;28.70;;;7.30;99.90;;;;;;5025951;28;20055;-57
2022/03/29 05:54:47;;;;;;;38.28;29.05;;;7.20;99.90;;;;;;5038271;28;20045;-57
2022/03/29 05:57:14;;;;;;;39.53;28.90;;;7.30;99.90;;;;;;5043181;28;20074;-57
2022/03/29 05:59:41;;;;;;;35.50;28.48;;;7.30;99.90;;;;;;5039946;28;20814;-57
2022/03/29 06:02:08;;;;;;;35.90;27.75;;;7.30;99.90;;;;;;5023861;28;20049;-57
2022/03/29 06:04:35;;;;;;;33.95;28.00;;;7.30;99.90;;;;;;5042778;28;20048;-56
2022/03/29 06:07:04;;;;;;;34.42;27.00;;;7.30;99.90;;;;;;5039185;28;20074;-56
2022/03/29 06:09:34;;;;;;;36.15;27.50;;;7.40;99.90;;;;;;5042332;28;20135;-57
2022/03/29 06:12:00;;;;;;;34.38;26.90;;;7.40;99.90;;;;;;5040674;28;20049;-48
2022/03/29 06:14:26;;;;;;;36.22;26.33;;;7.40;99.90;;;;;;5037390;28;20092;-57
2022/03/29 06:16:52;;;;;;;31.08;26.80;;;7.30;99.90;;;;;;5034879;28;20049;-57
2022/03/29 06:19:19;;;;;;;35.50;28.13;;;7.40;99.90;;;;;;5040776;28;20041;-56
2022/03/29 06:21:45;;;;;;;33.08;27.65;;;7.40;99.90;;;;;;5039287;28;20049;-56
2022/03/29 06:24:11;;;;;;;38.78;27.60;;;7.40;99.90;;;;;;5041057;28;20040;-56
2022/03/29 06:26:41;;;;;;;38.22;28.50;;;7.30;99.90;;;;;;5040611;28;20042;-56
2022/03/29 06:29:09;;;;;;;34.00;26.88;;;7.40;99.90;;;;;;5037541;28;20037;-57
2022/03/29 06:31:36;;;;;;;35.45;27.73;;;7.40;99.90;;;;;;5038689;28;20123;-56
2022/03/29 06:34:02;;;;;;;37.72;29.08;;;7.40;99.90;;;;;;5055747;28;20457;-56
2022/03/29 06:36:29;;;;;;;41.38;29.33;;;7.40;99.90;;;;;;5036903;28;20044;-56
2022/03/29 06:38:55;;;;;;;35.70;28.08;;;7.40;99.90;;;;;;5040321;28;21553;-59
2022/03/29 06:41:21;;;;;;;63.58;50.25;;;7.50;99.90;;;;;;5032108;28;20120;-57
2022/03/29 06:43:48;;;;;;;37.30;28.73;;;7.60;99.90;;;;;;5036742;28;20110;-54
2022/03/29 06:46:15;;;;;;;41.67;29.45;;;7.70;99.90;;;;;;5046727;28;20508;-57
2022/03/29 06:48:41;;;;;;;38.08;27.50;;;7.80;99.90;;;;;;5057768;28;20044;-56
2022/03/29 06:51:14;;;;;;;37.35;27.92;;;7.90;99.90;;;;;;5049839;28;20063;-56
2022/03/29 06:53:41;;;;;;;38.90;29.08;;;7.90;99.90;;;;;;5044816;28;20040;-55
2022/03/29 06:56:07;;;;;;;39.35;29.13;;;7.90;99.90;;;;;;5024655;28;20048;-55
2022/03/29 06:58:38;;;;;;;34.92;27.45;;;7.90;99.90;;;;;;5025576;28;20491;-57
2022/03/29 07:01:04;;;;;;;39.72;28.80;;;7.90;99.90;;;;;;5033752;28;20516;-55
2022/03/29 07:03:33;;;;;;;38.78;27.65;;;8.00;99.90;;;;;;5030061;28;20048;-56
2022/03/29 07:05:59;;;;;;;37.35;28.85;;;8.00;99.90;;;;;;5040693;28;20467;-56
2022/03/29 07:08:26;;;;;;;36.67;27.85;;;8.20;99.90;;;;;;5036020;28;20121;-54
2022/03/29 07:13:37;;;;;;;39.08;26.98;;;8.50;99.90;;;;;;5021328;28;20131;-56
2022/03/29 07:16:04;;;;;;;36.30;26.92;;;8.60;99.90;;;;;;5038783;28;20295;-56
2022/03/29 07:18:32;;;;;;;39.17;27.35;;;8.70;99.90;;;;;;5022694;28;20154;-56
2022/03/29 07:20:58;;;;;;;35.60;27.33;;;8.70;99.90;;;;;;5021291;28;20064;-56
2022/03/29 07:23:25;;;;;;;33.47;26.75;;;8.80;99.90;;;;;;5037058;28;20135;-56
2022/03/29 07:25:51;;;;;;;39.70;28.35;;;8.90;99.90;;;;;;5055648;28;20056;-55
2022/03/29 07:28:17;;;;;;;35.17;27.90;;;9.00;99.90;;;;;;5004878;28;20045;-55
2022/03/29 07:30:45;;;;;;;38.92;27.70;;;9.00;99.90;;;;;;5040384;28;20132;-54
2022/03/29 07:33:11;;;;;;;43.42;29.98;;;9.00;99.90;;;;;;5042216;28;20233;-55
2022/03/29 07:35:38;;;;;;;45.38;30.73;;;9.00;99.90;;;;;;5040045;28;20574;-55
2022/03/29 07:38:07;;;;;;;40.30;31.35;;;9.00;99.90;;;;;;5042628;28;20052;-56
2022/03/29 07:40:34;;;;;;;40.60;31.83;;;8.90;99.90;;;;;;5042226;28;20499;-55
2022/03/29 07:43:00;;;;;;;42.78;31.63;;;9.00;99.90;;;;;;5045121;28;20098;-56
2022/03/29 07:45:27;;;;;;;43.90;33.65;;;9.10;99.90;;;;;;5024211;28;20066;-56
2022/03/29 07:47:56;;;;;;;41.83;33.08;;;9.10;99.90;;;;;;5057870;28;20349;-55
2022/03/29 07:50:28;;;;;;;43.10;31.20;;;9.30;99.90;;;;;;5043909;28;20057;-56
2022/03/29 07:52:57;;;;;;;46.20;31.73;;;9.50;99.90;;;;;;5043291;28;20076;-56
2022/03/29 07:55:24;;;;;;;42.03;32.08;;;9.50;99.90;;;;;;5042511;28;20045;-55
2022/03/29 07:57:50;;;;;;;38.67;30.70;;;9.50;99.90;;;;;;5041018;28;20570;-56
2022/03/29 08:00:32;;;;;;;40.58;30.75;;;9.50;99.90;;;;;;5037825;28;20056;-56
2022/03/29 08:03:15;;;;;;;39.50;30.15;;;9.60;99.90;;;;;;5046751;28;20451;-56
2022/03/29 08:05:42;;;;;;;42.92;31.55;;;9.60;99.90;;;;;;5039579;28;20048;-56
2022/03/29 08:08:15;;;;;;;43.35;33.30;;;9.60;99.90;;;;;;5043023;28;20128;-56
2022/03/29 08:10:45;;;;;;;42.05;31.85;;;9.60;99.90;;;;;;5040327;28;20367;-56
2022/03/29 08:13:12;;;;;;;41.83;30.88;;;9.50;99.90;;;;;;5042549;28;20048;-57
2022/03/29 08:15:39;;;;;;;42.67;32.20;;;9.70;99.90;;;;;;5043097;28;20057;-57
2022/03/29 08:18:06;;;;;;;40.65;33.00;;;9.70;99.90;;;;;;5042335;28;20116;-56
2022/03/29 08:20:33;;;;;;;43.90;32.13;;;9.70;99.90;;;;;;5042534;28;20057;-57
2022/03/29 08:23:00;;;;;;;43.90;32.83;;;9.80;99.90;;;;;;5042592;28;20165;-57
2022/03/29 08:25:29;;;;;;;42.83;31.50;;;10.00;99.90;;;;;;5018255;28;20057;-57
2022/03/29 08:27:56;;;;;;;41.92;32.08;;;10.00;99.90;;;;;;5044275;28;20094;-57
2022/03/29 08:30:24;;;;;;;43.88;32.83;;;10.00;99.90;;;;;;5039940;28;20071;-57
2022/03/29 08:32:51;;;;;;;39.53;31.17;;;10.00;99.90;;;;;;5042049;28;20041;-57
2022/03/29 08:35:17;;;;;;;42.53;31.25;;;10.10;99.90;;;;;;5040646;28;20382;-57
2022/03/29 08:37:43;;;;;;;37.13;30.02;;;10.00;99.90;;;;;;5033405;28;20127;-57
2022/03/29 08:40:13;;;;;;;42.92;30.75;;;10.20;99.90;;;;;;5042296;28;20465;-57
2022/03/29 08:42:42;;;;;;;38.58;30.70;;;10.30;99.90;;;;;;5035754;28;20485;-57
2022/03/29 08:45:10;;;;;;;35.15;28.35;;;10.40;99.90;;;;;;5039285;28;20514;-57
2022/03/29 08:47:38;;;;;;;38.53;26.60;;;10.40;99.90;;;;;;5039079;28;20060;-55
2022/03/29 08:50:07;;;;;;;41.35;29.88;;;10.30;99.90;;;;;;5040084;28;20412;-55
2022/03/29 08:52:33;;;;;;;39.60;27.33;;;10.30;99.90;;;;;;5042495;28;20041;-55
2022/03/29 08:55:03;;;;;;;48.65;33.65;;;10.30;99.90;;;;;;5040855;28;20144;-55
2022/03/29 08:57:32;;;;;;;37.85;27.33;;;10.30;99.90;;;;;;5021773;28;20056;-55
2022/03/29 08:59:59;;;;;;;32.13;25.45;;;10.40;99.90;;;;;;5039466;28;20514;-55
2022/03/29 09:02:31;;;;;;;38.45;25.67;;;10.50;99.90;;;;;;5054043;28;20045;-56
2022/03/29 09:05:15;;;;;;;39.35;25.42;;;10.50;99.90;;;;;;5052810;28;20070;-56
2022/03/29 09:08:04;;;;;;;37.25;23.85;;;10.60;99.90;;;;;;5043687;28;20504;-56
2022/03/29 09:10:44;;;;;;;35.10;24.25;;;10.60;99.90;;;;;;5054704;28;20061;-56
2022/03/29 09:13:24;;;;;;;32.88;23.38;;;10.80;99.90;;;;;;5039031;28;20183;-56
2022/03/29 09:15:57;;;;;;;31.45;23.65;;;10.80;99.90;;;;;;5041665;28;20041;-56
2022/03/29 09:18:25;;;;;;;34.20;23.63;;;11.00;99.90;;;;;;5038477;28;20041;-56
2022/03/29 09:21:12;;;;;;;35.15;23.60;;;11.20;99.90;;;;;;5040418;28;20094;-56
2022/03/29 09:23:40;;;;;;;40.13;25.23;;;11.30;99.90;;;;;;5055700;28;20063;-57
2022/03/29 09:26:24;;;;;;;34.28;25.00;;;12.00;99.90;;;;;;5044824;28;20490;-57
2022/03/29 09:28:51;;;;;;;29.98;20.20;;;13.00;99.90;;;;;;5038397;28;20064;-57
2022/03/29 09:31:23;;;;;;;28.35;19.95;;;13.40;99.90;;;;;;5040171;28;20048;-57
2022/03/29 09:33:51;;;;;;;30.15;20.65;;;13.60;99.90;;;;;;5039793;28;20045;-57
2022/03/29 09:36:20;;;;;;;29.17;21.25;;;13.40;99.90;;;;;;5040990;28;20189;-57
2022/03/29 09:38:52;;;;;;;29.60;20.38;;;13.10;99.90;;;;;;5040200;28;20500;-58
2022/03/29 09:41:28;;;;;;;33.13;22.70;;;12.70;99.90;;;;;;5038671;28;20044;-57
2022/03/29 09:44:09;;;;;;;28.80;20.17;;;12.80;99.90;;;;;;5037724;28;20044;-59
2022/03/29 09:46:54;;;;;;;27.75;22.05;;;12.60;99.90;;;;;;5039813;28;20071;-57
2022/03/29 09:49:21;;;;;;;26.42;19.30;;;12.70;99.90;;;;;;5041230;28;20044;-57
2022/03/29 09:51:48;;;;;;;35.58;20.48;;;12.50;99.90;;;;;;5039677;28;20379;-56
2022/03/29 09:54:14;;;;;;;29.77;20.38;;;12.50;99.90;;;;;;5035487;28;20052;-57
2022/03/29 09:56:50;;;;;;;31.63;23.08;;;12.40;99.90;;;;;;5039960;28;20052;-56
2022/03/29 09:59:17;;;;;;;30.10;19.90;;;13.10;99.90;;;;;;5007428;28;20485;-56
2022/03/29 10:01:49;;;;;;;26.25;18.73;;;14.30;99.90;;;;;;5039331;28;20041;-56
2022/03/29 10:04:17;;;;;;;27.40;19.35;;;14.50;99.90;;;;;;5040718;28;20040;-56
2022/03/29 10:06:44;;;;;;;33.47;26.88;;;13.90;99.90;;;;;;5041697;28;20051;-57
2022/03/29 10:09:28;;;;;;;26.02;18.98;;;13.70;99.90;;;;;;5041530;28;20037;-57
2022/03/29 10:11:57;;;;;;;25.30;19.90;;;13.60;99.90;;;;;;5042335;28;20460;-57
2022/03/29 10:14:25;;;;;;;25.48;20.92;;;13.70;99.90;;;;;;5039930;28;20407;-57
2022/03/29 10:16:56;;;;;;;26.90;18.50;;;13.50;99.90;;;;;;5041005;28;20047;-56
2022/03/29 10:19:23;;;;;;;25.30;19.27;;;13.90;99.90;;;;;;5023380;28;20053;-57
2022/03/29 10:21:50;;;;;;;27.98;19.88;;;14.40;99.90;;;;;;5035294;28;20049;-56
2022/03/29 10:24:18;;;;;;;36.88;26.00;;;14.60;99.90;;;;;;5055162;28;20049;-57
2022/03/29 10:26:48;;;;;;;27.95;20.48;;;15.00;99.90;;;;;;5034368;28;20080;-57
2022/03/29 10:29:15;;;;;;;28.05;22.92;;;15.10;99.90;;;;;;5039630;28;20067;-57
2022/03/29 10:32:00;;;;;;;32.70;22.00;;;15.00;99.90;;;;;;5038729;28;20049;-57
2022/03/29 10:34:31;;;;;;;26.98;19.92;;;15.10;99.90;;;;;;5051966;28;20095;-59
2022/03/29 10:37:01;;;;;;;27.88;21.20;;;15.10;99.90;;;;;;5055255;28;20127;-57
2022/03/29 10:39:52;;;;;;;28.67;20.88;;;15.60;99.90;;;;;;5042319;28;20504;-57
2022/03/29 10:42:30;;;;;;;71.28;61.85;;;16.80;99.90;;;;;;5053267;28;20044;-58
2022/03/29 10:45:13;;;;;;;28.65;24.33;;;17.80;99.90;;;;;;5041523;28;20052;-58
2022/03/29 10:47:41;;;;;;;32.80;28.88;;;17.40;86.10;;;;;;5023359;28;20252;-59
2022/03/29 10:50:10;;;;;;;28.90;22.77;;;17.00;76.20;;;;;;5038099;28;20555;-59
2022/03/29 10:52:41;;;;;;;27.20;19.92;;;16.90;79.10;;;;;;5035593;28;20049;-59
2022/03/29 10:55:28;;;;;;;44.70;39.20;;;16.50;76.40;;;;;;5031540;28;20147;-59
2022/03/29 10:58:04;;;;;;;35.38;30.33;;;16.40;69.00;;;;;;5035854;28;20052;-59
2022/03/29 11:00:31;;;;;;;25.85;22.50;;;17.20;67.50;;;;;;5041395;28;20060;-59
2022/03/29 11:03:33;;;;;;;21.65;19.35;;;17.60;71.60;;;;;;5039002;28;20049;-59
2022/03/29 11:06:17;;;;;;;26.25;20.27;;;17.30;63.50;;;;;;5017343;28;20480;-59
2022/03/29 11:08:47;;;;;;;28.02;23.83;;;18.00;64.10;;;;;;5038552;28;20060;-59
2022/03/29 11:11:35;;;;;;;25.88;22.17;;;18.40;64.90;;;;;;5057775;28;20075;-59
2022/03/29 11:14:28;;;;;;;31.73;25.23;;;19.20;57.20;;;;;;5041677;28;20087;-62
2022/03/29 11:17:17;;;;;;;29.10;24.45;;;19.70;56.00;;;;;;5036463;28;20453;-60
2022/03/29 11:19:50;;;;;;;21.40;18.27;;;20.10;52.30;;;;;;5047231;28;20084;-60
2022/03/29 11:22:25;;;;;;;21.30;19.02;;;20.30;49.00;;;;;;5044234;28;20040;-60
2022/03/29 11:24:56;;;;;;;23.95;18.73;;;20.40;49.40;;;;;;5023857;28;20407;-60
2022/03/29 11:27:24;;;;;;;25.00;19.58;;;20.50;49.00;;;;;;5040779;28;20053;-60
2022/03/29 11:29:51;;;;;;;28.67;19.25;;;21.00;49.20;;;;;;5042053;28;20057;-60
2022/03/29 11:32:17;;;;;;;23.02;19.48;;;21.10;49.50;;;;;;5043603;28;20041;-60
2022/03/29 11:34:44;;;;;;;25.98;18.60;;;20.20;48.00;;;;;;5039265;28;20048;-60
2022/03/29 11:37:30;;;;;;;22.52;19.10;;;19.70;47.80;;;;;;5039557;28;20048;-60
2022/03/29 11:39:58;;;;;;;23.13;18.45;;;19.40;48.20;;;;;;5042280;28;20499;-58
2022/03/29 11:42:24;;;;;;;23.33;18.40;;;19.80;48.00;;;;;;5039526;28;20496;-58
2022/03/29 11:44:51;;;;;;;24.52;18.77;;;19.10;50.50;;;;;;5047007;28;20133;-58
2022/03/29 11:47:18;;;;;;;21.55;18.15;;;19.70;49.20;;;;;;5021860;28;20603;-58
2022/03/29 11:49:48;;;;;;;28.25;18.48;;;19.80;47.60;;;;;;5021063;28;20101;-59
2022/03/29 11:52:19;;;;;;;26.65;19.60;;;20.00;47.70;;;;;;5039806;28;20049;-58
2022/03/29 11:54:53;;;;;;;24.40;18.50;;;20.70;48.30;;;;;;5041249;28;20105;-58
2022/03/29 11:57:27;;;;;;;23.52;19.13;;;21.00;45.00;;;;;;5021611;28;20040;-59
2022/03/29 11:59:56;;;;;;;28.23;18.48;;;20.70;45.00;;;;;;5043659;28;20466;-59
2022/03/29 12:02:25;;;;;;;24.85;18.95;;;20.20;46.50;;;;;;5040084;28;20041;-60
2022/03/29 12:04:52;;;;;;;24.98;19.88;;;19.60;47.00;;;;;;5025091;28;20420;-60
2022/03/29 12:07:42;;;;;;;25.40;21.08;;;19.10;47.80;;;;;;5039949;28;20049;-60
2022/03/29 12:10:11;;;;;;;28.80;19.67;;;18.20;47.90;;;;;;5055553;28;20053;-59
2022/03/29 12:12:37;;;;;;;26.50;17.90;;;18.90;48.60;;;;;;5037192;28;20056;-58
2022/03/29 12:15:06;;;;;;;27.23;21.75;;;20.00;48.50;;;;;;5023215;28;20119;-62
2022/03/29 12:17:34;;;;;;;35.78;29.85;;;20.50;47.70;;;;;;5023007;28;20052;-62
2022/03/29 12:20:00;;;;;;;43.50;37.55;;;20.30;46.40;;;;;;5054764;28;20381;-62
2022/03/29 12:22:29;;;;;;;21.25;18.27;;;20.00;47.10;;;;;;5040183;28;20110;-61
2022/03/29 12:24:57;;;;;;;29.13;24.38;;;19.20;47.60;;;;;;5042468;28;20748;-61
2022/03/29 12:27:24;;;;;;;24.08;18.63;;;18.90;48.60;;;;;;5039524;28;20052;-62
2022/03/29 12:29:53;;;;;;;21.98;17.90;;;18.60;48.50;;;;;;5037231;28;20102;-62
2022/03/29 12:32:20;;;;;;;30.52;23.77;;;18.80;48.70;;;;;;5040257;28;20045;-62
2022/03/29 12:34:58;;;;;;;27.35;19.67;;;18.90;47.90;;;;;;5038576;28;20041;-62
2022/03/29 12:37:26;;;;;;;22.00;17.08;;;19.20;45.90;;;;;;5039162;28;20053;-61
2022/03/29 12:40:00;;;;;;;47.90;42.78;;;18.70;47.80;;;;;;5039999;28;20079;-64
2022/03/29 12:42:32;;;;;;;29.52;25.63;;;18.70;47.70;;;;;;5037830;28;20443;-62
2022/03/29 12:45:00;;;;;;;24.05;19.90;;;18.40;49.00;;;;;;5054526;28;20071;-63
2022/03/29 12:47:28;;;;;;;44.95;38.35;;;18.10;49.30;;;;;;5037393;28;20063;-62
2022/03/29 12:49:54;;;;;;;26.58;17.70;;;17.50;49.70;;;;;;5038838;28;20174;-62